createdAt,value
2022-08-11T00:02:00.804Z,45.30
2022-08-11T00:04:36.044Z,45.02
2022-08-11T00:07:05.270Z,44.96
2022-08-11T00:09:39.317Z,44.82
2022-08-11T00:12:18.089Z,44.59
2022-08-11T00:14:46.606Z,44.68
2022-08-11T00:17:16.326Z,45.28
2022-08-11T00:20:11.732Z,45.65
2022-08-11T00:22:41.714Z,45.31
2022-08-11T00:25:20.692Z,44.77
2022-08-11T00:27:49.202Z,44.73
2022-08-11T00:30:17.295Z,44.55
2022-08-11T00:32:55.344Z,44.96
2022-08-11T00:35:51.046Z,45.23
2022-08-11T00:38:17.326Z,45.58
2022-08-11T00:41:31.271Z,45.32
2022-08-11T00:44:12.157Z,45.48
2022-08-11T00:47:15.909Z,45.77
2022-08-11T00:50:07.452Z,45.96
2022-08-11T00:53:02.120Z,46.21
2022-08-11T00:55:59.574Z,46.29
2022-08-11T00:59:34.106Z,46.41
2022-08-11T01:02:18.363Z,47.01
2022-08-11T01:05:49.030Z,46.92
2022-08-11T01:08:42.334Z,47.07
2022-08-11T01:11:28.117Z,47.34
2022-08-11T01:14:52.841Z,47.13
2022-08-11T01:18:17.166Z,46.94
2022-08-11T01:20:48.526Z,46.68
2022-08-11T01:24:29.364Z,46.50
2022-08-11T01:27:33.176Z,46.64
2022-08-11T01:30:18.769Z,46.46
2022-08-11T01:33:41.078Z,45.95
2022-08-11T01:36:35.111Z,46.78
2022-08-11T01:40:08.361Z,46.51
2022-08-11T01:43:34.619Z,47.16
2022-08-11T01:46:21.772Z,47.80
2022-08-11T01:50:05.127Z,47.30
2022-08-11T01:52:30.177Z,47.72
2022-08-11T01:55:27.961Z,48.53
2022-08-11T01:58:43.847Z,48.88
2022-08-11T02:01:28.040Z,48.20
2022-08-11T02:04:12.957Z,47.79
2022-08-11T02:07:02.429Z,48.46
2022-08-11T02:09:29.203Z,48.73
2022-08-11T02:12:32.078Z,48.85
2022-08-11T02:15:18.017Z,48.58
2022-08-11T02:18:04.081Z,48.67
2022-08-11T02:21:04.401Z,48.58
2022-08-11T02:24:05.668Z,48.79
2022-08-11T02:26:55.864Z,48.38
2022-08-11T02:29:38.553Z,48.81
2022-08-11T02:32:29.833Z,49.43
2022-08-11T02:35:42.880Z,49.43
2022-08-11T02:38:49.208Z,49.48
2022-08-11T02:41:47.223Z,50.33
2022-08-11T02:44:51.357Z,51.14
2022-08-11T02:47:30.484Z,50.94
2022-08-11T02:50:23.803Z,50.91
2022-08-11T02:53:00.879Z,50.10
2022-08-11T02:55:57.374Z,51.01
2022-08-11T02:58:36.893Z,50.81
2022-08-11T03:01:23.555Z,51.23
2022-08-11T03:04:21.204Z,51.29
2022-08-11T03:07:01.109Z,51.08
2022-08-11T03:10:42.778Z,50.64
2022-08-11T03:13:44.361Z,51.69
2022-08-11T03:16:45.083Z,51.59
2022-08-11T03:19:57.334Z,51.42
2022-08-11T03:22:38.722Z,51.33
2022-08-11T03:25:34.678Z,51.38
2022-08-11T03:28:34.230Z,51.47
2022-08-11T03:31:19.911Z,52.16
2022-08-11T03:34:13.145Z,52.04
2022-08-11T03:37:15.037Z,51.94
2022-08-11T03:40:38.627Z,51.93
2022-08-11T03:43:28.653Z,52.42
2022-08-11T03:46:16.760Z,52.38
2022-08-11T03:49:29.574Z,52.72
2022-08-11T03:52:22.493Z,52.98
2022-08-11T03:55:28.614Z,53.43
2022-08-11T03:58:20.134Z,52.79
2022-08-11T04:01:06.001Z,52.05
2022-08-11T04:03:57.707Z,52.25
2022-08-11T04:06:47.509Z,52.36
2022-08-11T04:09:35.924Z,53.05
2022-08-11T04:12:53.238Z,53.70
2022-08-11T04:16:12.434Z,54.12
2022-08-11T04:18:54.785Z,54.44
2022-08-11T04:22:02.797Z,54.32
2022-08-11T04:24:52.292Z,54.10
2022-08-11T04:27:45.126Z,53.22
2022-08-11T04:30:30.339Z,53.13
2022-08-11T04:33:10.323Z,53.05
2022-08-11T04:36:21.241Z,53.16
2022-08-11T04:39:20.275Z,53.67
2022-08-11T04:42:52.942Z,53.84
2022-08-11T04:46:09.264Z,53.98
2022-08-11T04:49:35.478Z,53.91
2022-08-11T04:53:19.563Z,53.31
2022-08-11T04:56:26.736Z,53.93
2022-08-11T04:59:30.489Z,53.78
2022-08-11T05:02:30.942Z,54.24
2022-08-11T05:05:36.417Z,54.21
2022-08-11T05:08:59.681Z,54.51
2022-08-11T05:12:01.598Z,53.59
2022-08-11T05:15:12.390Z,53.60
2022-08-11T05:18:26.047Z,54.40
2022-08-11T05:21:15.242Z,54.25
2022-08-11T05:24:12.025Z,53.95
2022-08-11T05:27:13.837Z,53.20
2022-08-11T05:30:12.192Z,53.06
2022-08-11T05:33:04.340Z,53.53
2022-08-11T05:36:02.163Z,54.05
2022-08-11T05:38:54.619Z,53.16
2022-08-11T05:41:48.989Z,52.99
2022-08-11T05:44:39.117Z,52.55
2022-08-11T05:47:26.294Z,52.36
2022-08-11T05:50:15.482Z,52.12
2022-08-11T05:53:09.238Z,52.11
2022-08-11T05:56:03.706Z,52.04
2022-08-11T05:58:42.770Z,51.81
2022-08-11T06:01:14.470Z,51.78
2022-08-11T06:04:04.529Z,51.63
2022-08-11T06:06:31.968Z,51.31
2022-08-11T06:09:00.989Z,51.25
2022-08-11T06:11:42.869Z,50.96
2022-08-11T06:14:15.296Z,51.08
2022-08-11T06:16:47.679Z,51.01
2022-08-11T06:19:16.422Z,50.67
2022-08-11T06:21:50.815Z,50.93
2022-08-11T06:24:19.374Z,50.54
2022-08-11T06:27:12.367Z,50.57
2022-08-11T06:29:55.221Z,50.31
2022-08-11T06:32:33.191Z,49.83
2022-08-11T06:35:10.146Z,49.44
2022-08-11T06:38:06.535Z,49.26
2022-08-11T06:41:23.177Z,48.90
2022-08-11T06:44:10.723Z,48.63
2022-08-11T06:46:53.148Z,48.68
2022-08-11T06:49:52.681Z,48.45
2022-08-11T06:52:35.940Z,48.10
2022-08-11T06:55:55.427Z,47.78
2022-08-11T06:58:41.617Z,47.87
2022-08-11T07:01:16.527Z,47.35
2022-08-11T07:03:49.963Z,46.82
2022-08-11T07:06:50.536Z,46.70
2022-08-11T07:10:00.522Z,46.30
2022-08-11T07:13:44.902Z,45.59
2022-08-11T07:16:18.820Z,45.63
2022-08-11T07:19:25.852Z,44.95
2022-08-11T07:22:15.770Z,44.56
2022-08-11T07:25:20.153Z,44.29
2022-08-11T07:28:29.592Z,43.73
2022-08-11T07:31:04.781Z,43.55
2022-08-11T07:34:10.245Z,42.88
2022-08-11T07:36:55.284Z,42.60
2022-08-11T07:39:38.064Z,42.35
2022-08-11T07:42:11.084Z,41.73
2022-08-11T07:44:59.377Z,41.38
2022-08-11T07:47:47.296Z,40.93
2022-08-11T07:50:34.003Z,40.45
2022-08-11T07:53:02.977Z,40.42
2022-08-11T07:55:51.212Z,39.94
2022-08-11T07:58:45.561Z,39.62
2022-08-11T08:01:44.483Z,39.34
2022-08-11T08:04:35.703Z,39.51
2022-08-11T08:07:23.815Z,38.40
2022-08-11T08:10:14.047Z,38.45
2022-08-11T08:13:02.402Z,37.83
2022-08-11T08:15:50.385Z,37.39
2022-08-11T08:18:26.768Z,36.34
2022-08-11T08:21:11.723Z,35.96
2022-08-11T08:23:42.211Z,36.48
2022-08-11T08:26:32.320Z,36.06
2022-08-11T08:29:22.187Z,35.51
2022-08-11T08:31:52.786Z,35.47
2022-08-11T08:34:21.691Z,35.60
2022-08-11T08:36:51.547Z,35.02
2022-08-11T08:39:22.915Z,34.70
2022-08-11T08:41:57.196Z,35.13
2022-08-11T08:44:38.317Z,34.81
2022-08-11T08:47:16.871Z,34.24
2022-08-11T08:50:10.398Z,34.73
2022-08-11T08:52:58.302Z,35.00
2022-08-11T08:55:29.037Z,32.81
2022-08-11T08:58:00.499Z,33.45
2022-08-11T09:00:42.553Z,33.21
2022-08-11T09:03:38.560Z,33.13
2022-08-11T09:06:00.826Z,33.19
2022-08-11T09:08:32.695Z,32.78
2022-08-11T09:11:23.634Z,32.07
2022-08-11T09:14:04.941Z,31.66
2022-08-11T09:16:35.449Z,31.82
2022-08-11T09:19:03.828Z,31.97
2022-08-11T09:21:36.861Z,31.72
2022-08-11T09:24:37.766Z,30.37
2022-08-11T09:27:07.914Z,32.13
2022-08-11T09:29:37.983Z,30.88
2022-08-11T09:32:07.134Z,31.28
2022-08-11T09:34:37.365Z,31.48
2022-08-11T09:37:53.711Z,30.00
2022-08-11T09:40:30.539Z,30.79
2022-08-11T09:43:24.593Z,30.04
2022-08-11T09:45:54.861Z,29.52
2022-08-11T09:48:27.876Z,29.07
2022-08-11T09:50:59.894Z,29.58
2022-08-11T09:53:36.218Z,29.65
2022-08-11T09:56:36.399Z,30.00
2022-08-11T09:59:05.841Z,27.65
2022-08-11T10:01:47.326Z,26.15
2022-08-11T10:04:37.110Z,25.24
2022-08-11T10:07:10.480Z,26.33
2022-08-11T10:09:58.837Z,27.63
2022-08-11T10:12:33.126Z,28.01
2022-08-11T10:15:29.395Z,28.32
2022-08-11T10:18:26.285Z,26.83
2022-08-11T10:21:00.591Z,26.81
2022-08-11T10:24:00.876Z,26.91
2022-08-11T10:27:05.766Z,26.02
2022-08-11T10:29:56.629Z,25.53
2022-08-11T10:32:57.669Z,27.60
2022-08-11T10:35:29.430Z,27.16
2022-08-11T10:38:07.441Z,25.49
2022-08-11T10:40:40.703Z,25.83
2022-08-11T10:43:56.815Z,26.35
2022-08-11T10:46:30.345Z,24.52
2022-08-11T10:49:00.011Z,23.23
2022-08-11T10:55:02.271Z,26.28
2022-08-11T10:58:05.158Z,25.50
2022-08-11T11:00:35.007Z,24.66
2022-08-11T11:03:23.254Z,23.38
2022-08-11T11:06:12.621Z,23.14
2022-08-11T11:08:54.072Z,23.06
2022-08-11T11:11:46.091Z,21.12
2022-08-11T11:14:46.672Z,23.08
2022-08-11T11:18:01.815Z,22.66
2022-08-11T11:21:05.555Z,24.44
2022-08-11T11:23:47.246Z,24.19
2022-08-11T11:26:55.888Z,21.65
2022-08-11T11:30:01.467Z,20.29
2022-08-11T11:33:04.362Z,20.05
2022-08-11T11:36:09.025Z,20.05
2022-08-11T11:38:36.445Z,18.89
2022-08-11T11:41:22.374Z,18.95
2022-08-11T11:43:49.597Z,18.66
2022-08-11T11:46:18.107Z,18.41
2022-08-11T11:48:45.798Z,18.91
2022-08-11T11:51:16.477Z,17.13
2022-08-11T11:53:45.470Z,17.50
2022-08-11T11:56:14.273Z,17.71
2022-08-11T11:59:00.436Z,17.32
2022-08-11T12:01:28.871Z,17.27
2022-08-11T12:03:58.118Z,16.58
2022-08-11T12:06:27.630Z,17.04
2022-08-11T12:08:58.378Z,16.58
2022-08-11T12:11:46.701Z,16.59
2022-08-11T12:14:21.107Z,16.03
2022-08-11T12:16:49.192Z,16.24
2022-08-11T12:19:25.559Z,16.65
2022-08-11T12:22:15.501Z,17.51
2022-08-11T12:25:02.059Z,15.71
2022-08-11T12:27:31.383Z,15.66
2022-08-11T12:30:09.261Z,15.98
2022-08-11T12:32:39.563Z,15.46
2022-08-11T12:35:08.243Z,15.81
2022-08-11T12:37:45.983Z,15.27
2022-08-11T12:41:13.667Z,15.36
2022-08-11T12:43:57.063Z,15.26
2022-08-11T12:46:31.886Z,15.10
2022-08-11T12:49:27.897Z,15.08
2022-08-11T12:52:14.452Z,14.72
2022-08-11T12:55:00.148Z,14.51
2022-08-11T12:57:58.270Z,14.49
2022-08-11T13:00:50.074Z,14.66
2022-08-11T13:03:40.047Z,14.44
2022-08-11T13:06:09.101Z,14.47
2022-08-11T13:08:40.354Z,14.41
2022-08-11T13:11:56.854Z,14.62
2022-08-11T13:14:17.138Z,14.45
2022-08-11T13:17:05.478Z,14.14
2022-08-11T13:19:34.483Z,13.82
2022-08-11T13:22:07.235Z,14.25
2022-08-11T13:24:36.250Z,14.11
2022-08-11T13:27:04.117Z,13.85
2022-08-11T13:29:31.736Z,13.97
2022-08-11T13:32:00.222Z,13.84
2022-08-11T13:34:33.658Z,14.00
2022-08-11T13:37:05.210Z,13.90
2022-08-11T13:39:34.606Z,13.89
2022-08-11T13:42:04.626Z,13.63
2022-08-11T13:44:37.794Z,13.47
2022-08-11T13:47:08.474Z,13.75
2022-08-11T13:49:39.764Z,13.97
2022-08-11T13:52:13.618Z,13.89
2022-08-11T13:54:42.734Z,14.13
2022-08-11T13:58:06.262Z,14.22
2022-08-11T14:00:13.018Z,14.51
2022-08-11T14:02:54.031Z,14.46
2022-08-11T14:05:33.879Z,14.48
2022-08-11T14:08:37.455Z,13.90
2022-08-11T14:12:22.097Z,14.02
2022-08-11T14:14:30.270Z,14.36
2022-08-11T14:17:01.700Z,13.94
2022-08-11T14:19:35.673Z,13.81
2022-08-11T14:22:09.581Z,14.08
2022-08-11T14:24:43.725Z,14.28
2022-08-11T14:28:29.785Z,14.38
2022-08-11T14:30:26.395Z,14.49
2022-08-11T14:32:56.075Z,14.60
2022-08-11T14:35:26.172Z,14.84
2022-08-11T14:37:54.331Z,15.05
2022-08-11T14:40:40.104Z,14.61
2022-08-11T14:44:10.399Z,14.41
2022-08-11T14:49:00.854Z,14.71
2022-08-11T14:51:28.875Z,15.26
2022-08-11T14:54:17.540Z,15.19
2022-08-11T14:56:44.959Z,14.67
2022-08-11T14:59:13.849Z,14.83
2022-08-11T15:02:00.704Z,14.93
2022-08-11T15:04:36.212Z,15.35
2022-08-11T15:07:05.120Z,15.52
2022-08-11T15:10:10.140Z,15.73
2022-08-11T15:12:35.543Z,15.15
2022-08-11T15:15:24.673Z,15.28
2022-08-11T15:17:59.956Z,15.58
2022-08-11T15:20:48.346Z,15.47
2022-08-11T15:23:39.689Z,15.96
2022-08-11T15:26:19.437Z,16.23
2022-08-11T15:29:11.152Z,15.87
2022-08-11T15:31:57.864Z,16.19
2022-08-11T15:34:49.718Z,17.10
2022-08-11T15:37:29.499Z,17.47
2022-08-11T15:40:45.897Z,17.83
2022-08-11T15:43:34.095Z,18.26
2022-08-11T15:46:19.871Z,18.62
2022-08-11T15:48:57.965Z,18.73
2022-08-11T15:51:36.126Z,18.69
2022-08-11T15:54:11.738Z,18.80
2022-08-11T15:56:46.348Z,18.95
2022-08-11T15:59:43.014Z,18.93
2022-08-11T16:02:17.668Z,18.97
2022-08-11T16:04:50.160Z,19.31
2022-08-11T16:07:29.327Z,18.96
2022-08-11T16:10:09.698Z,19.01
2022-08-11T16:13:07.079Z,19.56
2022-08-11T16:16:15.015Z,19.72
2022-08-11T16:18:57.599Z,19.71
2022-08-11T16:21:35.206Z,19.32
2022-08-11T16:26:30.503Z,20.27
2022-08-11T16:27:11.607Z,20.79
2022-08-11T16:29:48.149Z,20.63
2022-08-11T16:32:27.065Z,20.40
2022-08-11T16:35:21.128Z,20.00
2022-08-11T16:38:10.522Z,20.20
2022-08-11T16:40:40.029Z,20.18
2022-08-11T16:43:30.931Z,19.82
2022-08-11T16:46:37.607Z,20.27
2022-08-11T16:49:34.771Z,20.04
2022-08-11T16:52:04.297Z,20.54
2022-08-11T16:54:36.343Z,20.43
2022-08-11T16:57:32.547Z,20.58
2022-08-11T17:00:06.250Z,20.53
2022-08-11T17:02:58.633Z,20.33
2022-08-11T17:05:54.226Z,20.20
2022-08-11T17:08:57.104Z,19.71
2022-08-11T17:11:52.533Z,19.67
2022-08-11T17:14:37.015Z,19.87
2022-08-11T17:17:16.791Z,19.92
2022-08-11T17:20:40.336Z,20.27
2022-08-11T17:23:03.668Z,19.96
2022-08-11T17:26:03.543Z,20.61
2022-08-11T17:28:34.147Z,20.15
2022-08-11T17:31:22.644Z,20.81
2022-08-11T17:34:11.407Z,20.46
2022-08-11T17:36:45.135Z,21.02
2022-08-11T17:39:14.377Z,20.54
2022-08-11T17:42:03.302Z,20.87
2022-08-11T17:44:51.618Z,20.94
2022-08-11T17:47:38.954Z,21.36
2022-08-11T17:50:16.240Z,21.28
2022-08-11T17:53:05.881Z,21.14
2022-08-11T17:55:57.630Z,21.13
2022-08-11T17:58:45.890Z,21.69
2022-08-11T18:01:15.217Z,21.53
2022-08-11T18:03:54.604Z,21.67
2022-08-11T18:06:33.587Z,21.89
2022-08-11T18:09:27.737Z,21.93
2022-08-11T18:12:15.157Z,22.16
2022-08-11T18:15:07.989Z,23.09
2022-08-11T18:17:55.390Z,23.20
2022-08-11T18:20:42.877Z,23.58
2022-08-11T18:23:46.342Z,23.60
2022-08-11T18:26:39.206Z,23.98
2022-08-11T18:29:26.838Z,25.26
2022-08-11T18:32:20.790Z,25.49
2022-08-11T18:35:13.031Z,25.59
2022-08-11T18:38:07.419Z,25.93
2022-08-11T18:40:54.731Z,26.18
2022-08-11T18:43:44.593Z,26.70
2022-08-11T18:46:35.300Z,27.69
2022-08-11T18:50:03.522Z,27.88
2022-08-11T18:52:42.471Z,28.45
2022-08-11T18:55:35.224Z,28.62
2022-08-11T18:58:25.753Z,28.55
2022-08-11T19:01:17.057Z,29.03
2022-08-11T19:04:11.774Z,29.10
2022-08-11T19:07:06.267Z,29.09
2022-08-11T19:09:56.842Z,28.53
2022-08-11T19:12:44.535Z,28.61
2022-08-11T19:15:32.290Z,28.50
2022-08-11T19:18:20.166Z,28.50
2022-08-11T19:21:07.227Z,28.72
2022-08-11T19:24:05.093Z,29.02
2022-08-11T19:26:53.144Z,28.86
2022-08-11T19:30:04.672Z,28.67
2022-08-11T19:32:49.750Z,28.92
2022-08-11T19:35:36.072Z,29.06
2022-08-11T19:38:23.383Z,29.47
2022-08-11T19:41:09.166Z,28.93
2022-08-11T19:43:59.257Z,28.92
2022-08-11T19:46:45.672Z,29.22
2022-08-11T19:49:33.184Z,29.47
2022-08-11T19:52:19.801Z,29.65
2022-08-11T19:55:07.677Z,30.27
2022-08-11T19:57:58.160Z,30.84
2022-08-11T20:00:44.096Z,30.78
2022-08-11T20:03:31.857Z,31.23
2022-08-11T20:06:24.497Z,31.32
2022-08-11T20:09:15.437Z,31.46
2022-08-11T20:12:06.690Z,31.90
2022-08-11T20:14:57.435Z,31.92
2022-08-11T20:17:50.387Z,32.48
2022-08-11T20:20:38.848Z,32.80
2022-08-11T20:23:27.385Z,32.48
2022-08-11T20:26:30.924Z,32.88
2022-08-11T20:29:18.950Z,32.96
2022-08-11T20:32:09.722Z,33.36
2022-08-11T20:34:58.807Z,33.18
2022-08-11T20:37:50.960Z,33.32
2022-08-11T20:40:44.219Z,33.34
2022-08-11T20:44:07.821Z,33.92
2022-08-11T20:46:44.461Z,34.46
2022-08-11T20:49:45.941Z,34.98
2022-08-11T20:52:44.344Z,34.70
2022-08-11T20:55:46.149Z,34.61
2022-08-11T20:59:13.902Z,34.97
2022-08-11T21:01:52.038Z,35.51
2022-08-11T21:04:53.916Z,35.82
2022-08-11T21:07:44.157Z,35.78
2022-08-11T21:10:52.021Z,35.78
2022-08-11T21:13:46.069Z,35.99
2022-08-11T21:16:38.710Z,36.24
2022-08-11T21:20:00.093Z,36.18
2022-08-11T21:23:06.680Z,36.36
2022-08-11T21:26:26.127Z,36.49
2022-08-11T21:29:17.012Z,36.63
2022-08-11T21:32:06.843Z,36.94
2022-08-11T21:34:54.001Z,37.01
2022-08-11T21:37:42.613Z,37.35
2022-08-11T21:40:37.203Z,37.35
2022-08-11T21:43:25.718Z,37.49
2022-08-11T21:46:13.890Z,37.97
2022-08-11T21:49:02.147Z,37.84
2022-08-11T21:51:50.032Z,38.02
2022-08-11T21:54:37.308Z,37.84
2022-08-11T21:57:25.610Z,37.97
2022-08-11T22:00:17.833Z,38.53
2022-08-11T22:03:07.514Z,38.39
2022-08-11T22:05:56.541Z,38.39
2022-08-11T22:08:42.480Z,38.60
2022-08-11T22:11:32.080Z,38.87
2022-08-11T22:14:23.752Z,38.53
2022-08-11T22:17:10.776Z,38.74
2022-08-11T22:20:00.459Z,38.94
2022-08-11T22:22:53.765Z,38.65
2022-08-11T22:25:54.272Z,37.99
2022-08-11T22:28:42.833Z,38.22
2022-08-11T22:31:31.448Z,38.43
2022-08-11T22:34:17.298Z,38.91
2022-08-11T22:37:07.758Z,39.53
2022-08-11T22:40:01.618Z,40.37
2022-08-11T22:42:53.483Z,40.61
2022-08-11T22:45:40.721Z,40.75
2022-08-11T22:48:29.796Z,40.79
2022-08-11T22:51:18.374Z,40.51
2022-08-11T22:54:06.062Z,40.16
2022-08-11T22:56:52.902Z,39.93
2022-08-11T22:59:41.982Z,39.74
2022-08-11T23:02:28.589Z,39.79
2022-08-11T23:05:16.290Z,40.43
2022-08-11T23:08:04.325Z,40.19
2022-08-11T23:10:51.839Z,40.05
2022-08-11T23:13:38.688Z,39.58
2022-08-11T23:16:25.644Z,40.06
2022-08-11T23:19:15.150Z,40.23
2022-08-11T23:22:22.546Z,40.18
2022-08-11T23:25:08.272Z,39.70
2022-08-11T23:28:05.090Z,39.13
2022-08-11T23:30:53.460Z,39.54
2022-08-11T23:33:42.924Z,39.65
2022-08-11T23:36:36.203Z,39.90
2022-08-11T23:39:33.565Z,40.39
2022-08-11T23:42:19.410Z,40.04
2022-08-11T23:45:07.173Z,39.58
2022-08-11T23:47:58.785Z,40.84
2022-08-11T23:50:45.132Z,40.85
2022-08-11T23:53:32.969Z,41.61
2022-08-11T23:56:21.762Z,42.03
2022-08-11T23:59:09.641Z,41.73
